sensor_id;sensor_type;location;lat;lon;timestamp;P1;durP1;ratioP1;P2;durP2;ratioP2
71810;SDS011;59657;0.000;0.000;2022-07-03T00:03:11;1.55;;;1.33;;
71810;SDS011;59657;0.000;0.000;2022-07-03T00:05:38;1.10;;;1.00;;
71810;SDS011;59657;0.000;0.000;2022-07-03T00:08:04;1.48;;;1.30;;
71810;SDS011;59657;0.000;0.000;2022-07-03T00:10:31;1.30;;;1.20;;
71810;SDS011;59657;0.000;0.000;2022-07-03T00:12:57;2.15;;;1.70;;
71810;SDS011;59657;0.000;0.000;2022-07-03T00:17:50;1.17;;;1.08;;
71810;SDS011;59657;0.000;0.000;2022-07-03T00:20:17;1.55;;;1.45;;
71810;SDS011;59657;0.000;0.000;2022-07-03T00:22:43;2.03;;;1.40;;
71810;SDS011;59657;0.000;0.000;2022-07-03T00:25:11;1.27;;;1.17;;
71810;SDS011;59657;0.000;0.000;2022-07-03T00:27:38;1.65;;;1.50;;
71810;SDS011;59657;0.000;0.000;2022-07-03T00:30:05;1.17;;;1.15;;
71810;SDS011;59657;0.000;0.000;2022-07-03T00:32:33;1.40;;;1.35;;
71810;SDS011;59657;0.000;0.000;2022-07-03T00:35:00;1.50;;;1.40;;
71810;SDS011;59657;0.000;0.000;2022-07-03T00:37:27;1.98;;;1.55;;
71810;SDS011;59657;0.000;0.000;2022-07-03T00:42:19;1.80;;;1.45;;
71810;SDS011;59657;0.000;0.000;2022-07-03T00:44:54;1.40;;;1.27;;
71810;SDS011;59657;0.000;0.000;2022-07-03T00:47:23;1.35;;;1.30;;
71810;SDS011;59657;0.000;0.000;2022-07-03T00:49:51;1.17;;;1.17;;
71810;SDS011;59657;0.000;0.000;2022-07-03T00:52:18;1.27;;;1.17;;
71810;SDS011;59657;0.000;0.000;2022-07-03T00:55:02;1.70;;;1.60;;
71810;SDS011;59657;0.000;0.000;2022-07-03T00:57:31;1.52;;;1.42;;
71810;SDS011;59657;0.000;0.000;2022-07-03T00:59:59;1.33;;;1.23;;
71810;SDS011;59657;0.000;0.000;2022-07-03T01:05:15;2.83;;;1.58;;
71810;SDS011;59657;0.000;0.000;2022-07-03T01:08:03;1.40;;;1.30;;
71810;SDS011;59657;0.000;0.000;2022-07-03T01:10:37;1.25;;;1.15;;
71810;SDS011;59657;0.000;0.000;2022-07-03T01:13:07;1.42;;;1.33;;
71810;SDS011;59657;0.000;0.000;2022-07-03T01:15:36;1.80;;;1.45;;
71810;SDS011;59657;0.000;0.000;2022-07-03T01:18:08;1.15;;;1.05;;
71810;SDS011;59657;0.000;0.000;2022-07-03T01:20:39;1.63;;;1.40;;
71810;SDS011;59657;0.000;0.000;2022-07-03T01:23:11;1.95;;;1.35;;
71810;SDS011;59657;0.000;0.000;2022-07-03T01:25:47;1.70;;;1.60;;
71810;SDS011;59657;0.000;0.000;2022-07-03T01:28:16;1.65;;;1.52;;
71810;SDS011;59657;0.000;0.000;2022-07-03T01:30:46;1.65;;;1.55;;
71810;SDS011;59657;0.000;0.000;2022-07-03T01:33:17;1.55;;;1.45;;
71810;SDS011;59657;0.000;0.000;2022-07-03T01:35:57;1.70;;;1.60;;
71810;SDS011;59657;0.000;0.000;2022-07-03T01:38:24;1.70;;;1.60;;
71810;SDS011;59657;0.000;0.000;2022-07-03T01:40:52;2.85;;;2.05;;
71810;SDS011;59657;0.000;0.000;2022-07-03T01:43:23;1.58;;;1.48;;
71810;SDS011;59657;0.000;0.000;2022-07-03T01:45:51;1.58;;;1.48;;
71810;SDS011;59657;0.000;0.000;2022-07-03T01:48:19;1.83;;;1.73;;
71810;SDS011;59657;0.000;0.000;2022-07-03T01:50:47;1.80;;;1.70;;
71810;SDS011;59657;0.000;0.000;2022-07-03T01:53:16;1.77;;;1.67;;
71810;SDS011;59657;0.000;0.000;2022-07-03T01:55:43;1.83;;;1.70;;
71810;SDS011;59657;0.000;0.000;2022-07-03T02:00:57;2.10;;;1.67;;
71810;SDS011;59657;0.000;0.000;2022-07-03T02:03:27;1.88;;;1.65;;
71810;SDS011;59657;0.000;0.000;2022-07-03T02:06:37;2.08;;;1.90;;
71810;SDS011;59657;0.000;0.000;2022-07-03T02:11:18;1.70;;;1.60;;
71810;SDS011;59657;0.000;0.000;2022-07-03T02:13:50;1.70;;;1.58;;
71810;SDS011;59657;0.000;0.000;2022-07-03T02:16:19;3.25;;;1.98;;
71810;SDS011;59657;0.000;0.000;2022-07-03T02:18:49;3.08;;;1.90;;
71810;SDS011;59657;0.000;0.000;2022-07-03T02:21:19;2.47;;;2.28;;
71810;SDS011;59657;0.000;0.000;2022-07-03T02:26:29;1.60;;;1.50;;
71810;SDS011;59657;0.000;0.000;2022-07-03T02:28:59;2.03;;;1.88;;
71810;SDS011;59657;0.000;0.000;2022-07-03T02:31:27;2.22;;;1.80;;
71810;SDS011;59657;0.000;0.000;2022-07-03T02:33:59;1.67;;;1.58;;
71810;SDS011;59657;0.000;0.000;2022-07-03T02:36:27;2.38;;;1.75;;
71810;SDS011;59657;0.000;0.000;2022-07-03T02:38:56;2.13;;;1.80;;
71810;SDS011;59657;0.000;0.000;2022-07-03T02:44:31;2.08;;;1.88;;
71810;SDS011;59657;0.000;0.000;2022-07-03T02:46:59;1.77;;;1.67;;
71810;SDS011;59657;0.000;0.000;2022-07-03T02:49:33;1.77;;;1.67;;
71810;SDS011;59657;0.000;0.000;2022-07-03T02:52:12;2.13;;;1.77;;
71810;SDS011;59657;0.000;0.000;2022-07-03T02:54:45;1.73;;;1.63;;
71810;SDS011;59657;0.000;0.000;2022-07-03T02:59:54;2.25;;;1.92;;
71810;SDS011;59657;0.000;0.000;2022-07-03T03:02:28;1.58;;;1.48;;
71810;SDS011;59657;0.000;0.000;2022-07-03T03:05:01;1.75;;;1.63;;
71810;SDS011;59657;0.000;0.000;2022-07-03T03:07:33;2.30;;;1.77;;
71810;SDS011;59657;0.000;0.000;2022-07-03T03:10:00;1.90;;;1.55;;
71810;SDS011;59657;0.000;0.000;2022-07-03T03:14:54;2.00;;;1.90;;
71810;SDS011;59657;0.000;0.000;2022-07-03T03:17:25;1.90;;;1.75;;
71810;SDS011;59657;0.000;0.000;2022-07-03T03:19:55;2.00;;;1.80;;
71810;SDS011;59657;0.000;0.000;2022-07-03T03:25:07;2.90;;;1.95;;
71810;SDS011;59657;0.000;0.000;2022-07-03T03:30:00;2.28;;;1.90;;
71810;SDS011;59657;0.000;0.000;2022-07-03T03:32:26;1.80;;;1.60;;
71810;SDS011;59657;0.000;0.000;2022-07-03T03:34:54;2.38;;;2.17;;
71810;SDS011;59657;0.000;0.000;2022-07-03T03:39:46;3.17;;;2.45;;
71810;SDS011;59657;0.000;0.000;2022-07-03T03:44:39;2.20;;;2.00;;
71810;SDS011;59657;0.000;0.000;2022-07-03T03:49:31;2.20;;;2.00;;
71810;SDS011;59657;0.000;0.000;2022-07-03T03:54:24;2.22;;;2.00;;
71810;SDS011;59657;0.000;0.000;2022-07-03T03:59:17;1.98;;;1.75;;
71810;SDS011;59657;0.000;0.000;2022-07-03T04:04:11;1.60;;;1.50;;
71810;SDS011;59657;0.000;0.000;2022-07-03T04:06:43;2.22;;;1.85;;
71810;SDS011;59657;0.000;0.000;2022-07-03T04:09:09;2.20;;;1.60;;
71810;SDS011;59657;0.000;0.000;2022-07-03T04:11:36;2.17;;;2.00;;
71810;SDS011;59657;0.000;0.000;2022-07-03T04:14:02;2.17;;;1.98;;
71810;SDS011;59657;0.000;0.000;2022-07-03T04:16:29;2.03;;;1.80;;
71810;SDS011;59657;0.000;0.000;2022-07-03T04:18:55;2.00;;;1.90;;
71810;SDS011;59657;0.000;0.000;2022-07-03T04:23:48;2.17;;;1.77;;
71810;SDS011;59657;0.000;0.000;2022-07-03T04:28:41;1.90;;;1.80;;
71810;SDS011;59657;0.000;0.000;2022-07-03T04:33:33;1.92;;;1.80;;
71810;SDS011;59657;0.000;0.000;2022-07-03T04:36:00;1.80;;;1.70;;
71810;SDS011;59657;0.000;0.000;2022-07-03T04:40:52;2.35;;;2.15;;
71810;SDS011;59657;0.000;0.000;2022-07-03T04:43:19;3.08;;;2.03;;
71810;SDS011;59657;0.000;0.000;2022-07-03T04:48:12;2.10;;;1.90;;
71810;SDS011;59657;0.000;0.000;2022-07-03T04:53:04;2.67;;;2.13;;
71810;SDS011;59657;0.000;0.000;2022-07-03T04:55:31;3.10;;;2.10;;
71810;SDS011;59657;0.000;0.000;2022-07-03T05:00:24;1.75;;;1.65;;
71810;SDS011;59657;0.000;0.000;2022-07-03T05:05:16;1.65;;;1.55;;
71810;SDS011;59657;0.000;0.000;2022-07-03T05:10:09;2.20;;;2.00;;
71810;SDS011;59657;0.000;0.000;2022-07-03T05:12:36;3.13;;;2.10;;
71810;SDS011;59657;0.000;0.000;2022-07-03T05:15:02;2.13;;;1.83;;
71810;SDS011;59657;0.000;0.000;2022-07-03T05:17:29;1.75;;;1.65;;
71810;SDS011;59657;0.000;0.000;2022-07-03T05:22:36;1.60;;;1.50;;
71810;SDS011;59657;0.000;0.000;2022-07-03T05:25:03;2.38;;;2.15;;
71810;SDS011;59657;0.000;0.000;2022-07-03T05:27:29;2.10;;;1.90;;
71810;SDS011;59657;0.000;0.000;2022-07-03T05:29:56;2.08;;;1.85;;
71810;SDS011;59657;0.000;0.000;2022-07-03T05:32:22;1.70;;;1.60;;
71810;SDS011;59657;0.000;0.000;2022-07-03T05:37:15;2.05;;;1.77;;
71810;SDS011;59657;0.000;0.000;2022-07-03T05:39:41;2.83;;;1.92;;
71810;SDS011;59657;0.000;0.000;2022-07-03T05:42:08;1.70;;;1.55;;
71810;SDS011;59657;0.000;0.000;2022-07-03T05:47:00;1.77;;;1.50;;
71810;SDS011;59657;0.000;0.000;2022-07-03T05:49:27;1.50;;;1.40;;
71810;SDS011;59657;0.000;0.000;2022-07-03T05:54:19;2.40;;;1.67;;
71810;SDS011;59657;0.000;0.000;2022-07-03T05:59:12;1.58;;;1.48;;
71810;SDS011;59657;0.000;0.000;2022-07-03T06:04:05;1.40;;;1.30;;
71810;SDS011;59657;0.000;0.000;2022-07-03T06:08:57;2.10;;;1.67;;
71810;SDS011;59657;0.000;0.000;2022-07-03T06:11:24;1.50;;;1.40;;
71810;SDS011;59657;0.000;0.000;2022-07-03T06:13:51;1.92;;;1.30;;
71810;SDS011;59657;0.000;0.000;2022-07-03T06:16:17;1.75;;;1.65;;
71810;SDS011;59657;0.000;0.000;2022-07-03T06:21:10;3.08;;;1.88;;
71810;SDS011;59657;0.000;0.000;2022-07-03T06:23:37;1.60;;;1.50;;
71810;SDS011;59657;0.000;0.000;2022-07-03T06:26:03;1.58;;;1.48;;
71810;SDS011;59657;0.000;0.000;2022-07-03T06:30:56;1.55;;;1.45;;
71810;SDS011;59657;0.000;0.000;2022-07-03T06:35:48;1.60;;;1.50;;
71810;SDS011;59657;0.000;0.000;2022-07-03T06:40:41;1.23;;;1.13;;
71810;SDS011;59657;0.000;0.000;2022-07-03T06:45:33;1.60;;;1.50;;
71810;SDS011;59657;0.000;0.000;2022-07-03T06:50:26;1.30;;;1.20;;
71810;SDS011;59657;0.000;0.000;2022-07-03T06:55:19;1.40;;;1.30;;
71810;SDS011;59657;0.000;0.000;2022-07-03T07:00:11;1.15;;;1.15;;
71810;SDS011;59657;0.000;0.000;2022-07-03T07:02:38;1.67;;;1.33;;
71810;SDS011;59657;0.000;0.000;2022-07-03T07:05:05;1.10;;;1.00;;
71810;SDS011;59657;0.000;0.000;2022-07-03T07:07:31;1.15;;;1.05;;
71810;SDS011;59657;0.000;0.000;2022-07-03T07:09:58;1.00;;;1.00;;
71810;SDS011;59657;0.000;0.000;2022-07-03T07:12:24;1.33;;;1.23;;
71810;SDS011;59657;0.000;0.000;2022-07-03T07:14:51;1.40;;;1.30;;
71810;SDS011;59657;0.000;0.000;2022-07-03T07:19:43;1.35;;;1.25;;
71810;SDS011;59657;0.000;0.000;2022-07-03T07:22:10;0.88;;;0.88;;
71810;SDS011;59657;0.000;0.000;2022-07-03T07:27:03;1.27;;;1.17;;
71810;SDS011;59657;0.000;0.000;2022-07-03T07:29:29;1.00;;;0.93;;
71810;SDS011;59657;0.000;0.000;2022-07-03T07:31:56;1.02;;;1.02;;
71810;SDS011;59657;0.000;0.000;2022-07-03T07:34:22;1.10;;;1.05;;
71810;SDS011;59657;0.000;0.000;2022-07-03T07:36:49;0.95;;;0.90;;
71810;SDS011;59657;0.000;0.000;2022-07-03T07:41:41;0.90;;;0.90;;
71810;SDS011;59657;0.000;0.000;2022-07-03T07:44:08;0.90;;;0.90;;
71810;SDS011;59657;0.000;0.000;2022-07-03T07:46:34;0.93;;;0.93;;
71810;SDS011;59657;0.000;0.000;2022-07-03T07:51:27;0.98;;;0.98;;
71810;SDS011;59657;0.000;0.000;2022-07-03T07:56:23;1.02;;;1.02;;
71810;SDS011;59657;0.000;0.000;2022-07-03T07:58:50;1.17;;;1.13;;
71810;SDS011;59657;0.000;0.000;2022-07-03T08:01:18;1.10;;;1.00;;
71810;SDS011;59657;0.000;0.000;2022-07-03T08:06:36;0.70;;;0.70;;
71810;SDS011;59657;0.000;0.000;2022-07-03T08:09:03;0.68;;;0.68;;
71810;SDS011;59657;0.000;0.000;2022-07-03T08:11:29;0.73;;;0.73;;
71810;SDS011;59657;0.000;0.000;2022-07-03T08:13:56;1.73;;;0.90;;
71810;SDS011;59657;0.000;0.000;2022-07-03T08:18:48;0.50;;;0.50;;
71810;SDS011;59657;0.000;0.000;2022-07-03T08:23:41;0.45;;;0.45;;
71810;SDS011;59657;0.000;0.000;2022-07-03T08:26:08;0.70;;;0.70;;
71810;SDS011;59657;0.000;0.000;2022-07-03T08:28:34;0.63;;;0.63;;
71810;SDS011;59657;0.000;0.000;2022-07-03T08:33:27;0.57;;;0.55;;
71810;SDS011;59657;0.000;0.000;2022-07-03T08:38:19;0.60;;;0.60;;
71810;SDS011;59657;0.000;0.000;2022-07-03T08:40:48;0.40;;;0.40;;
71810;SDS011;59657;0.000;0.000;2022-07-03T08:43:16;0.38;;;0.38;;
71810;SDS011;59657;0.000;0.000;2022-07-03T08:45:43;0.30;;;0.30;;
71810;SDS011;59657;0.000;0.000;2022-07-03T08:50:36;0.50;;;0.50;;
71810;SDS011;59657;0.000;0.000;2022-07-03T08:53:04;0.47;;;0.47;;
71810;SDS011;59657;0.000;0.000;2022-07-03T08:57:56;0.45;;;0.45;;
71810;SDS011;59657;0.000;0.000;2022-07-03T09:00:25;0.50;;;0.47;;
71810;SDS011;59657;0.000;0.000;2022-07-03T09:02:51;0.40;;;0.40;;
71810;SDS011;59657;0.000;0.000;2022-07-03T09:07:45;0.47;;;0.47;;
71810;SDS011;59657;0.000;0.000;2022-07-03T09:10:13;0.68;;;0.68;;
71810;SDS011;59657;0.000;0.000;2022-07-03T09:12:39;0.70;;;0.70;;
71810;SDS011;59657;0.000;0.000;2022-07-03T09:15:06;0.55;;;0.55;;
71810;SDS011;59657;0.000;0.000;2022-07-03T09:17:33;0.80;;;0.73;;
71810;SDS011;59657;0.000;0.000;2022-07-03T09:20:01;0.57;;;0.57;;
71810;SDS011;59657;0.000;0.000;2022-07-03T09:22:30;0.63;;;0.63;;
71810;SDS011;59657;0.000;0.000;2022-07-03T09:25:05;0.50;;;0.50;;
71810;SDS011;59657;0.000;0.000;2022-07-03T09:27:32;0.50;;;0.50;;
71810;SDS011;59657;0.000;0.000;2022-07-03T09:30:01;0.57;;;0.57;;
71810;SDS011;59657;0.000;0.000;2022-07-03T09:32:32;0.70;;;0.57;;
71810;SDS011;59657;0.000;0.000;2022-07-03T09:37:37;0.50;;;0.50;;
71810;SDS011;59657;0.000;0.000;2022-07-03T09:42:30;0.50;;;0.50;;
71810;SDS011;59657;0.000;0.000;2022-07-03T09:47:23;0.40;;;0.40;;
71810;SDS011;59657;0.000;0.000;2022-07-03T09:49:58;0.52;;;0.52;;
71810;SDS011;59657;0.000;0.000;2022-07-03T09:52:27;0.57;;;0.57;;
71810;SDS011;59657;0.000;0.000;2022-07-03T09:54:56;0.38;;;0.38;;
71810;SDS011;59657;0.000;0.000;2022-07-03T09:57:23;0.40;;;0.40;;
71810;SDS011;59657;0.000;0.000;2022-07-03T09:59:56;0.80;;;0.80;;
71810;SDS011;59657;0.000;0.000;2022-07-03T10:02:34;0.55;;;0.55;;
71810;SDS011;59657;0.000;0.000;2022-07-03T10:10:18;0.75;;;0.75;;
71810;SDS011;59657;0.000;0.000;2022-07-03T10:12:47;0.80;;;0.80;;
71810;SDS011;59657;0.000;0.000;2022-07-03T10:15:14;1.15;;;0.95;;
71810;SDS011;59657;0.000;0.000;2022-07-03T10:17:41;0.70;;;0.70;;
71810;SDS011;59657;0.000;0.000;2022-07-03T10:20:13;0.80;;;0.80;;
71810;SDS011;59657;0.000;0.000;2022-07-03T10:22:41;0.80;;;0.70;;
71810;SDS011;59657;0.000;0.000;2022-07-03T10:25:12;0.95;;;0.88;;
71810;SDS011;59657;0.000;0.000;2022-07-03T10:27:39;0.95;;;0.95;;
71810;SDS011;59657;0.000;0.000;2022-07-03T10:32:33;1.10;;;1.10;;
71810;SDS011;59657;0.000;0.000;2022-07-03T10:35:01;1.40;;;1.10;;
71810;SDS011;59657;0.000;0.000;2022-07-03T10:37:28;0.80;;;0.80;;
71810;SDS011;59657;0.000;0.000;2022-07-03T10:40:00;0.70;;;0.70;;
71810;SDS011;59657;0.000;0.000;2022-07-03T10:42:46;0.82;;;0.82;;
71810;SDS011;59657;0.000;0.000;2022-07-03T10:45:26;0.90;;;0.90;;
71810;SDS011;59657;0.000;0.000;2022-07-03T10:47:54;1.05;;;0.88;;
71810;SDS011;59657;0.000;0.000;2022-07-03T10:50:21;0.88;;;0.88;;
71810;SDS011;59657;0.000;0.000;2022-07-03T10:52:48;0.80;;;0.80;;
71810;SDS011;59657;0.000;0.000;2022-07-03T10:55:15;0.88;;;0.88;;
71810;SDS011;59657;0.000;0.000;2022-07-03T10:57:42;0.60;;;0.60;;
71810;SDS011;59657;0.000;0.000;2022-07-03T11:00:13;0.88;;;0.75;;
71810;SDS011;59657;0.000;0.000;2022-07-03T11:02:42;0.70;;;0.55;;
71810;SDS011;59657;0.000;0.000;2022-07-03T11:05:10;0.70;;;0.70;;
71810;SDS011;59657;0.000;0.000;2022-07-03T11:08:02;0.52;;;0.52;;
71810;SDS011;59657;0.000;0.000;2022-07-03T11:10:32;0.65;;;0.65;;
71810;SDS011;59657;0.000;0.000;2022-07-03T11:13:00;0.40;;;0.40;;
71810;SDS011;59657;0.000;0.000;2022-07-03T11:15:29;0.40;;;0.40;;
71810;SDS011;59657;0.000;0.000;2022-07-03T11:20:46;0.43;;;0.43;;
71810;SDS011;59657;0.000;0.000;2022-07-03T11:23:30;0.30;;;0.30;;
71810;SDS011;59657;0.000;0.000;2022-07-03T11:26:01;0.52;;;0.52;;
71810;SDS011;59657;0.000;0.000;2022-07-03T11:31:16;0.47;;;0.47;;
71810;SDS011;59657;0.000;0.000;2022-07-03T11:33:58;0.50;;;0.38;;
71810;SDS011;59657;0.000;0.000;2022-07-03T11:36:29;0.45;;;0.45;;
71810;SDS011;59657;0.000;0.000;2022-07-03T11:39:06;0.55;;;0.50;;
71810;SDS011;59657;0.000;0.000;2022-07-03T11:41:42;0.47;;;0.47;;
71810;SDS011;59657;0.000;0.000;2022-07-03T11:44:10;0.50;;;0.50;;
71810;SDS011;59657;0.000;0.000;2022-07-03T11:46:40;0.38;;;0.38;;
71810;SDS011;59657;0.000;0.000;2022-07-03T11:49:10;0.30;;;0.30;;
71810;SDS011;59657;0.000;0.000;2022-07-03T11:51:37;0.30;;;0.30;;
71810;SDS011;59657;0.000;0.000;2022-07-03T11:54:04;0.30;;;0.30;;
71810;SDS011;59657;0.000;0.000;2022-07-03T11:56:31;0.50;;;0.50;;
71810;SDS011;59657;0.000;0.000;2022-07-03T11:58:58;0.40;;;0.35;;
71810;SDS011;59657;0.000;0.000;2022-07-03T12:01:28;0.40;;;0.38;;
71810;SDS011;59657;0.000;0.000;2022-07-03T12:06:47;0.38;;;0.38;;
71810;SDS011;59657;0.000;0.000;2022-07-03T12:09:16;0.40;;;0.40;;
71810;SDS011;59657;0.000;0.000;2022-07-03T12:11:59;0.70;;;0.70;;
71810;SDS011;59657;0.000;0.000;2022-07-03T12:17:10;0.45;;;0.40;;
71810;SDS011;59657;0.000;0.000;2022-07-03T12:19:37;0.85;;;0.60;;
71810;SDS011;59657;0.000;0.000;2022-07-03T12:22:04;0.50;;;0.50;;
71810;SDS011;59657;0.000;0.000;2022-07-03T12:24:31;0.40;;;0.40;;
71810;SDS011;59657;0.000;0.000;2022-07-03T12:27:00;0.38;;;0.38;;
71810;SDS011;59657;0.000;0.000;2022-07-03T12:29:28;0.63;;;0.63;;
71810;SDS011;59657;0.000;0.000;2022-07-03T12:31:54;0.35;;;0.35;;
71810;SDS011;59657;0.000;0.000;2022-07-03T12:44:55;0.43;;;0.43;;
71810;SDS011;59657;0.000;0.000;2022-07-03T12:47:22;0.50;;;0.50;;
71810;SDS011;59657;0.000;0.000;2022-07-03T12:49:58;0.60;;;0.60;;
71810;SDS011;59657;0.000;0.000;2022-07-03T12:52:26;0.60;;;0.57;;
71810;SDS011;59657;0.000;0.000;2022-07-03T12:54:53;0.70;;;0.70;;
71810;SDS011;59657;0.000;0.000;2022-07-03T12:57:21;0.65;;;0.65;;
71810;SDS011;59657;0.000;0.000;2022-07-03T13:00:13;0.38;;;0.38;;
71810;SDS011;59657;0.000;0.000;2022-07-03T13:02:46;0.55;;;0.55;;
71810;SDS011;59657;0.000;0.000;2022-07-03T13:05:23;0.52;;;0.52;;
71810;SDS011;59657;0.000;0.000;2022-07-03T13:07:50;0.60;;;0.60;;
71810;SDS011;59657;0.000;0.000;2022-07-03T13:10:18;0.73;;;0.73;;
71810;SDS011;59657;0.000;0.000;2022-07-03T13:12:49;0.50;;;0.47;;
71810;SDS011;59657;0.000;0.000;2022-07-03T13:15:16;0.80;;;0.70;;
71810;SDS011;59657;0.000;0.000;2022-07-03T13:18:00;0.70;;;0.70;;
71810;SDS011;59657;0.000;0.000;2022-07-03T13:20:29;0.55;;;0.55;;
71810;SDS011;59657;0.000;0.000;2022-07-03T13:22:57;0.60;;;0.60;;
71810;SDS011;59657;0.000;0.000;2022-07-03T13:25:24;0.30;;;0.30;;
71810;SDS011;59657;0.000;0.000;2022-07-03T13:27:51;0.50;;;0.50;;
71810;SDS011;59657;0.000;0.000;2022-07-03T13:30:18;0.73;;;0.68;;
71810;SDS011;59657;0.000;0.000;2022-07-03T13:32:45;0.95;;;0.60;;
71810;SDS011;59657;0.000;0.000;2022-07-03T13:35:12;0.57;;;0.57;;
71810;SDS011;59657;0.000;0.000;2022-07-03T13:37:38;0.60;;;0.60;;
71810;SDS011;59657;0.000;0.000;2022-07-03T13:40:05;0.65;;;0.65;;
71810;SDS011;59657;0.000;0.000;2022-07-03T13:42:32;0.60;;;0.60;;
71810;SDS011;59657;0.000;0.000;2022-07-03T13:44:58;0.57;;;0.57;;
71810;SDS011;59657;0.000;0.000;2022-07-03T13:47:25;1.10;;;0.90;;
71810;SDS011;59657;0.000;0.000;2022-07-03T13:49:51;1.75;;;0.90;;
71810;SDS011;59657;0.000;0.000;2022-07-03T13:52:18;1.00;;;0.93;;
71810;SDS011;59657;0.000;0.000;2022-07-03T13:57:10;1.38;;;1.27;;
71810;SDS011;59657;0.000;0.000;2022-07-03T13:59:37;0.90;;;0.90;;
71810;SDS011;59657;0.000;0.000;2022-07-03T14:02:03;1.13;;;1.02;;
71810;SDS011;59657;0.000;0.000;2022-07-03T14:06:57;1.05;;;1.00;;
71810;SDS011;59657;0.000;0.000;2022-07-03T14:09:23;1.05;;;1.05;;
71810;SDS011;59657;0.000;0.000;2022-07-03T14:11:50;0.98;;;0.98;;
71810;SDS011;59657;0.000;0.000;2022-07-03T14:16:43;1.35;;;0.80;;
71810;SDS011;59657;0.000;0.000;2022-07-03T14:19:10;1.05;;;0.95;;
71810;SDS011;59657;0.000;0.000;2022-07-03T14:21:36;0.90;;;0.90;;
71810;SDS011;59657;0.000;0.000;2022-07-03T14:24:03;0.88;;;0.88;;
71810;SDS011;59657;0.000;0.000;2022-07-03T14:26:30;0.88;;;0.88;;
71810;SDS011;59657;0.000;0.000;2022-07-03T14:29:07;0.90;;;0.90;;
71810;SDS011;59657;0.000;0.000;2022-07-03T14:31:47;1.05;;;0.90;;
71810;SDS011;59657;0.000;0.000;2022-07-03T14:34:28;0.88;;;0.88;;
71810;SDS011;59657;0.000;0.000;2022-07-03T14:36:55;0.60;;;0.60;;
71810;SDS011;59657;0.000;0.000;2022-07-03T14:39:21;0.80;;;0.80;;
71810;SDS011;59657;0.000;0.000;2022-07-03T14:41:48;0.75;;;0.73;;
71810;SDS011;59657;0.000;0.000;2022-07-03T14:46:40;0.60;;;0.60;;
71810;SDS011;59657;0.000;0.000;2022-07-03T14:51:33;0.60;;;0.60;;
71810;SDS011;59657;0.000;0.000;2022-07-03T14:56:26;0.82;;;0.82;;
71810;SDS011;59657;0.000;0.000;2022-07-03T14:58:55;0.68;;;0.68;;
71810;SDS011;59657;0.000;0.000;2022-07-03T15:01:23;1.00;;;1.00;;
71810;SDS011;59657;0.000;0.000;2022-07-03T15:03:53;0.90;;;0.90;;
71810;SDS011;59657;0.000;0.000;2022-07-03T15:06:21;0.80;;;0.80;;
71810;SDS011;59657;0.000;0.000;2022-07-03T15:08:52;0.77;;;0.77;;
71810;SDS011;59657;0.000;0.000;2022-07-03T15:11:21;1.38;;;1.27;;
71810;SDS011;59657;0.000;0.000;2022-07-03T15:14:07;1.00;;;1.00;;
71810;SDS011;59657;0.000;0.000;2022-07-03T15:16:35;0.90;;;0.90;;
71810;SDS011;59657;0.000;0.000;2022-07-03T15:19:02;0.90;;;0.90;;
71810;SDS011;59657;0.000;0.000;2022-07-03T15:23:57;1.20;;;1.10;;
71810;SDS011;59657;0.000;0.000;2022-07-03T15:26:27;0.88;;;0.88;;
71810;SDS011;59657;0.000;0.000;2022-07-03T15:28:55;1.45;;;1.10;;
71810;SDS011;59657;0.000;0.000;2022-07-03T15:31:24;1.05;;;1.05;;
71810;SDS011;59657;0.000;0.000;2022-07-03T15:33:51;1.33;;;1.23;;
71810;SDS011;59657;0.000;0.000;2022-07-03T15:38:45;1.58;;;1.48;;
71810;SDS011;59657;0.000;0.000;2022-07-03T15:41:14;1.58;;;1.48;;
71810;SDS011;59657;0.000;0.000;2022-07-03T15:43:53;1.58;;;1.48;;
71810;SDS011;59657;0.000;0.000;2022-07-03T15:46:35;1.55;;;1.45;;
71810;SDS011;59657;0.000;0.000;2022-07-03T15:49:24;1.40;;;1.30;;
71810;SDS011;59657;0.000;0.000;2022-07-03T15:52:09;1.48;;;1.38;;
71810;SDS011;59657;0.000;0.000;2022-07-03T15:54:36;1.00;;;1.00;;
71810;SDS011;59657;0.000;0.000;2022-07-03T15:57:04;1.80;;;1.48;;
71810;SDS011;59657;0.000;0.000;2022-07-03T15:59:35;1.65;;;1.38;;
71810;SDS011;59657;0.000;0.000;2022-07-03T16:02:02;1.30;;;1.20;;
71810;SDS011;59657;0.000;0.000;2022-07-03T16:04:48;1.60;;;1.50;;
71810;SDS011;59657;0.000;0.000;2022-07-03T16:07:16;1.35;;;1.20;;
71810;SDS011;59657;0.000;0.000;2022-07-03T16:09:43;1.98;;;1.50;;
71810;SDS011;59657;0.000;0.000;2022-07-03T16:12:10;1.48;;;1.38;;
71810;SDS011;59657;0.000;0.000;2022-07-03T16:14:52;1.25;;;1.15;;
71810;SDS011;59657;0.000;0.000;2022-07-03T16:19:45;1.25;;;1.00;;
71810;SDS011;59657;0.000;0.000;2022-07-03T16:22:12;1.13;;;1.05;;
71810;SDS011;59657;0.000;0.000;2022-07-03T16:24:39;1.20;;;1.05;;
71810;SDS011;59657;0.000;0.000;2022-07-03T16:27:07;0.98;;;0.90;;
71810;SDS011;59657;0.000;0.000;2022-07-03T16:29:36;1.08;;;0.98;;
71810;SDS011;59657;0.000;0.000;2022-07-03T16:34:34;1.30;;;1.20;;
71810;SDS011;59657;0.000;0.000;2022-07-03T16:37:06;1.42;;;1.30;;
71810;SDS011;59657;0.000;0.000;2022-07-03T16:39:35;1.10;;;1.10;;
71810;SDS011;59657;0.000;0.000;2022-07-03T16:42:03;1.10;;;1.10;;
71810;SDS011;59657;0.000;0.000;2022-07-03T16:44:31;1.02;;;0.93;;
71810;SDS011;59657;0.000;0.000;2022-07-03T16:46:58;1.00;;;1.00;;
71810;SDS011;59657;0.000;0.000;2022-07-03T16:49:36;0.75;;;0.75;;
71810;SDS011;59657;0.000;0.000;2022-07-03T16:52:04;1.15;;;1.13;;
71810;SDS011;59657;0.000;0.000;2022-07-03T16:54:32;1.25;;;1.15;;
71810;SDS011;59657;0.000;0.000;2022-07-03T16:56:58;1.33;;;1.23;;
71810;SDS011;59657;0.000;0.000;2022-07-03T16:59:25;0.98;;;0.98;;
71810;SDS011;59657;0.000;0.000;2022-07-03T17:01:52;0.95;;;0.95;;
71810;SDS011;59657;0.000;0.000;2022-07-03T17:04:20;1.05;;;1.05;;
71810;SDS011;59657;0.000;0.000;2022-07-03T17:06:46;1.25;;;1.10;;
71810;SDS011;59657;0.000;0.000;2022-07-03T17:09:13;1.30;;;1.17;;
71810;SDS011;59657;0.000;0.000;2022-07-03T17:11:41;1.30;;;1.20;;
71810;SDS011;59657;0.000;0.000;2022-07-03T17:14:08;0.93;;;0.93;;
71810;SDS011;59657;0.000;0.000;2022-07-03T17:16:38;1.42;;;1.33;;
71810;SDS011;59657;0.000;0.000;2022-07-03T17:19:09;1.35;;;1.25;;
71810;SDS011;59657;0.000;0.000;2022-07-03T17:21:39;1.27;;;1.17;;
71810;SDS011;59657;0.000;0.000;2022-07-03T17:24:07;0.98;;;0.98;;
71810;SDS011;59657;0.000;0.000;2022-07-03T17:26:34;1.55;;;1.45;;
71810;SDS011;59657;0.000;0.000;2022-07-03T17:29:06;1.42;;;1.30;;
71810;SDS011;59657;0.000;0.000;2022-07-03T17:31:34;1.60;;;1.50;;
71810;SDS011;59657;0.000;0.000;2022-07-03T17:34:01;1.70;;;1.60;;
71810;SDS011;59657;0.000;0.000;2022-07-03T17:36:30;1.83;;;1.73;;
71810;SDS011;59657;0.000;0.000;2022-07-03T17:38:58;1.13;;;1.10;;
71810;SDS011;59657;0.000;0.000;2022-07-03T17:41:25;1.17;;;1.17;;
71810;SDS011;59657;0.000;0.000;2022-07-03T17:43:52;1.60;;;1.50;;
71810;SDS011;59657;0.000;0.000;2022-07-03T17:46:19;1.48;;;1.38;;
71810;SDS011;59657;0.000;0.000;2022-07-03T17:48:46;1.60;;;1.50;;
71810;SDS011;59657;0.000;0.000;2022-07-03T17:51:14;1.50;;;1.40;;
71810;SDS011;59657;0.000;0.000;2022-07-03T17:53:42;1.10;;;1.10;;
71810;SDS011;59657;0.000;0.000;2022-07-03T17:56:09;1.33;;;1.23;;
71810;SDS011;59657;0.000;0.000;2022-07-03T17:58:40;2.00;;;1.90;;
71810;SDS011;59657;0.000;0.000;2022-07-03T18:01:07;1.10;;;1.10;;
71810;SDS011;59657;0.000;0.000;2022-07-03T18:03:34;1.60;;;1.50;;
71810;SDS011;59657;0.000;0.000;2022-07-03T18:06:01;1.75;;;1.65;;
71810;SDS011;59657;0.000;0.000;2022-07-03T18:10:58;1.42;;;1.33;;
71810;SDS011;59657;0.000;0.000;2022-07-03T18:13:38;1.70;;;1.60;;
71810;SDS011;59657;0.000;0.000;2022-07-03T18:16:10;1.70;;;1.60;;
71810;SDS011;59657;0.000;0.000;2022-07-03T18:18:38;1.63;;;1.52;;
71810;SDS011;59657;0.000;0.000;2022-07-03T18:21:05;1.55;;;1.45;;
71810;SDS011;59657;0.000;0.000;2022-07-03T18:23:33;1.33;;;1.23;;
71810;SDS011;59657;0.000;0.000;2022-07-03T18:26:02;1.27;;;1.17;;
71810;SDS011;59657;0.000;0.000;2022-07-03T18:28:29;1.42;;;1.33;;
71810;SDS011;59657;0.000;0.000;2022-07-03T18:30:56;1.50;;;1.40;;